createdAt,value
2016-06-07T00:00:19.632Z,0
2016-06-07T00:01:19.635Z,0
2016-06-07T00:02:19.434Z,0
2016-06-07T00:03:19.594Z,0
2016-06-07T00:04:19.579Z,0
2016-06-07T00:05:19.567Z,0
2016-06-07T00:06:19.476Z,0
2016-06-07T00:07:19.541Z,0
2016-06-07T00:08:19.543Z,0
2016-06-07T00:09:19.531Z,0
2016-06-07T00:10:19.502Z,0
2016-06-07T00:11:19.349Z,0
2016-06-07T00:12:19.493Z,0
2016-06-07T00:13:19.479Z,0
2016-06-07T00:14:19.481Z,0
2016-06-07T00:15:19.484Z,0
2016-06-07T00:16:19.456Z,0
2016-06-07T00:17:19.443Z,0
2016-06-07T00:18:19.445Z,0
2016-06-07T00:19:19.433Z,0
2016-06-07T00:20:19.623Z,0
2016-06-07T00:21:20.517Z,0
2016-06-07T00:22:19.410Z,0
2016-06-07T00:23:19.397Z,0
2016-06-07T00:24:19.367Z,0
2016-06-07T00:25:19.370Z,0
2016-06-07T00:26:19.373Z,0
2016-06-07T00:27:19.344Z,0
2016-06-07T00:28:19.364Z,0
2016-06-07T00:29:19.179Z,0
2016-06-07T00:30:19.338Z,0
2016-06-07T00:31:19.308Z,0
2016-06-07T00:32:19.296Z,0
2016-06-07T00:33:19.283Z,0
2016-06-07T00:34:19.302Z,0
2016-06-07T00:35:19.272Z,0
2016-06-07T00:36:19.400Z,0
2016-06-07T00:37:19.246Z,0
2016-06-07T00:38:19.250Z,0
2016-06-07T00:39:19.237Z,0
2016-06-07T00:40:19.223Z,0
2016-06-07T00:41:19.226Z,0
2016-06-07T00:42:19.198Z,0
2016-06-07T00:43:19.201Z,0
2016-06-07T00:44:19.171Z,0
2016-06-07T00:45:19.174Z,0
2016-06-07T00:46:19.162Z,0
2016-06-07T00:47:19.149Z,0
2016-06-07T00:48:19.167Z,0
2016-06-07T00:49:19.139Z,0
2016-06-07T00:50:19.125Z,0
2016-06-07T00:51:19.769Z,0
2016-06-07T00:52:19.100Z,0
2016-06-07T00:53:19.087Z,0
2016-06-07T00:54:19.073Z,0
2016-06-07T00:55:19.061Z,0
2016-06-07T00:56:19.079Z,0
2016-06-07T00:57:19.051Z,0
2016-06-07T00:58:19.038Z,0
2016-06-07T00:59:19.041Z,0
2016-06-07T01:00:19.028Z,0
2016-06-07T01:01:19.030Z,0
2016-06-07T01:02:19.017Z,0
2016-06-07T01:03:19.005Z,0
2016-06-07T01:04:19.007Z,0
2016-06-07T01:05:18.963Z,0
2016-06-07T01:06:20.465Z,0
2016-06-07T01:07:18.952Z,0
2016-06-07T01:08:18.955Z,0
2016-06-07T01:09:18.943Z,0
2016-06-07T01:10:18.930Z,0
2016-06-07T01:11:18.932Z,0
2016-06-07T01:12:18.918Z,0
2016-06-07T01:13:18.890Z,0
2016-06-07T01:14:18.877Z,0
2016-06-07T01:15:18.865Z,0
2016-06-07T01:16:18.711Z,0
2016-06-07T01:17:18.854Z,0
2016-06-07T01:18:18.842Z,0
2016-06-07T01:19:19.234Z,0
2016-06-07T01:20:18.831Z,0
2016-06-07T01:21:19.412Z,0
2016-06-07T01:22:18.806Z,0
2016-06-07T01:23:18.792Z,0
2016-06-07T01:24:18.779Z,0
2016-06-07T01:25:18.766Z,0
2016-06-07T01:26:18.754Z,0
2016-06-07T01:27:18.756Z,0
2016-06-07T01:28:18.744Z,0
2016-06-07T01:29:18.746Z,0
2016-06-07T01:30:18.717Z,0
2016-06-07T01:31:18.752Z,0
2016-06-07T01:32:18.755Z,0
2016-06-07T01:33:18.678Z,0
2016-06-07T01:34:18.681Z,0
2016-06-07T01:35:18.668Z,0
2016-06-07T01:36:18.734Z,0
2016-06-07T01:37:18.502Z,0
2016-06-07T01:38:18.630Z,0
2016-06-07T01:39:18.632Z,0
2016-06-07T01:40:18.619Z,0
2016-06-07T01:41:18.450Z,0
2016-06-07T01:42:18.594Z,0
2016-06-07T01:43:18.580Z,0
2016-06-07T01:44:18.582Z,0
2016-06-07T01:45:18.554Z,0
2016-06-07T01:46:18.588Z,0
2016-06-07T01:47:18.544Z,0
2016-06-07T01:48:18.535Z,0
2016-06-07T01:49:18.537Z,0
2016-06-07T01:50:18.539Z,0
2016-06-07T01:51:18.697Z,0
2016-06-07T01:52:18.542Z,0
2016-06-07T01:53:18.558Z,0
2016-06-07T01:54:18.566Z,0
2016-06-07T01:55:18.387Z,0
2016-06-07T01:56:18.552Z,0
2016-06-07T01:57:18.372Z,0
2016-06-07T01:58:18.536Z,0
2016-06-07T01:59:18.524Z,0
2016-06-07T02:00:18.513Z,0
2016-06-07T02:01:18.518Z,0
2016-06-07T02:02:18.335Z,0
2016-06-07T02:03:18.495Z,0
2016-06-07T02:04:18.484Z,0
2016-06-07T02:05:18.472Z,0
2016-06-07T02:06:18.694Z,0
2016-06-07T02:07:18.322Z,0
2016-06-07T02:08:18.451Z,0
2016-06-07T02:09:18.438Z,0
2016-06-07T02:10:18.426Z,0
2016-06-07T02:11:18.428Z,0
2016-06-07T02:12:18.432Z,0
2016-06-07T02:13:18.403Z,0
2016-06-07T02:14:18.391Z,0
2016-06-07T02:15:18.362Z,0
2016-06-07T02:16:18.365Z,0
2016-06-07T02:17:18.335Z,0
2016-06-07T02:18:18.339Z,0
2016-06-07T02:19:18.326Z,0
2016-06-07T02:20:18.172Z,0
2016-06-07T02:21:18.206Z,0
2016-06-07T02:22:18.302Z,0
2016-06-07T02:23:18.290Z,0
2016-06-07T02:24:18.277Z,0
2016-06-07T02:25:18.264Z,0
2016-06-07T02:26:18.267Z,0
2016-06-07T02:27:18.254Z,0
2016-06-07T02:28:18.318Z,0
2016-06-07T02:29:18.212Z,0
2016-06-07T02:30:18.198Z,0
2016-06-07T02:31:18.201Z,0
2016-06-07T02:32:18.189Z,0
2016-06-07T02:33:18.176Z,0
2016-06-07T02:34:18.179Z,0
2016-06-07T02:35:18.150Z,0
2016-06-07T02:36:18.169Z,0
2016-06-07T02:37:18.374Z,0
2016-06-07T02:38:18.127Z,0
2016-06-07T02:39:18.114Z,0
2016-06-07T02:40:18.117Z,0
2016-06-07T02:41:18.088Z,0
2016-06-07T02:42:17.966Z,0
2016-06-07T02:43:18.078Z,0
2016-06-07T02:44:18.080Z,0
2016-06-07T02:45:18.068Z,0
2016-06-07T02:46:18.039Z,0
2016-06-07T02:47:18.041Z,0
2016-06-07T02:48:18.029Z,0
2016-06-07T02:49:18.046Z,0
2016-06-07T02:50:17.847Z,0
2016-06-07T02:51:18.600Z,0
2016-06-07T02:52:17.992Z,0
2016-06-07T02:53:17.965Z,0
2016-06-07T02:54:17.951Z,0
2016-06-07T02:55:17.954Z,0
2016-06-07T02:56:17.941Z,0
2016-06-07T02:57:17.928Z,0
2016-06-07T02:58:17.915Z,0
2016-06-07T02:59:17.902Z,0
2016-06-07T03:00:17.905Z,0
2016-06-07T03:01:17.720Z,0
2016-06-07T03:02:17.864Z,0
2016-06-07T03:03:17.866Z,0
2016-06-07T03:04:17.853Z,0
2016-06-07T03:05:17.684Z,0
2016-06-07T03:06:17.858Z,0
2016-06-07T03:07:18.017Z,0
2016-06-07T03:08:17.817Z,0
2016-06-07T03:09:17.648Z,0
2016-06-07T03:10:17.806Z,0
2016-06-07T03:11:17.841Z,0
2016-06-07T03:12:17.780Z,0
2016-06-07T03:13:17.596Z,0
2016-06-07T03:14:17.755Z,0
2016-06-07T03:15:17.726Z,0
2016-06-07T03:16:17.729Z,0
2016-06-07T03:17:17.716Z,0
2016-06-07T03:18:17.547Z,0
2016-06-07T03:19:17.691Z,5
2016-06-07T03:20:17.724Z,5
2016-06-07T03:21:17.711Z,5
2016-06-07T03:22:18.480Z,5
2016-06-07T03:23:17.654Z,5
2016-06-07T03:24:17.641Z,5
2016-06-07T03:25:17.644Z,5
2016-06-07T03:26:17.632Z,5
2016-06-07T03:27:17.618Z,5
2016-06-07T03:28:17.605Z,5
2016-06-07T03:29:17.592Z,5
2016-06-07T03:30:17.626Z,5
2016-06-07T03:31:17.567Z,5
2016-06-07T03:32:17.570Z,10
2016-06-07T03:33:17.556Z,10
2016-06-07T03:34:17.528Z,10
2016-06-07T03:35:17.514Z,10
2016-06-07T03:36:19.080Z,10
2016-06-07T03:37:17.801Z,10
2016-06-07T03:38:17.491Z,10
2016-06-07T03:39:17.478Z,10
2016-06-07T03:40:17.466Z,10
2016-06-07T03:41:17.312Z,15
2016-06-07T03:42:17.439Z,15
2016-06-07T03:43:17.489Z,15
2016-06-07T03:44:17.414Z,15
2016-06-07T03:45:17.400Z,15
2016-06-07T03:46:17.403Z,15
2016-06-07T03:47:17.391Z,15
2016-06-07T03:48:17.377Z,15
2016-06-07T03:49:17.365Z,15
2016-06-07T03:50:17.352Z,15
2016-06-07T03:51:17.402Z,20
2016-06-07T03:52:18.904Z,20
2016-06-07T03:53:17.329Z,20
2016-06-07T03:54:17.160Z,20
2016-06-07T03:55:17.365Z,20
2016-06-07T03:56:17.290Z,20
2016-06-07T03:57:17.276Z,20
2016-06-07T03:58:17.279Z,20
2016-06-07T03:59:17.267Z,20
2016-06-07T04:00:17.254Z,20
2016-06-07T04:01:17.241Z,20
2016-06-07T04:02:17.259Z,20
2016-06-07T04:03:17.215Z,25
2016-06-07T04:04:17.201Z,25
2016-06-07T04:05:17.204Z,25
2016-06-07T04:06:17.551Z,25
2016-06-07T04:07:17.960Z,25
2016-06-07T04:08:17.166Z,25
2016-06-07T04:09:17.169Z,25
2016-06-07T04:10:17.140Z,25
2016-06-07T04:11:17.127Z,25
2016-06-07T04:12:17.114Z,25
2016-06-07T04:13:16.945Z,30
2016-06-07T04:14:17.089Z,30
2016-06-07T04:15:16.935Z,30
2016-06-07T04:16:16.921Z,30
2016-06-07T04:17:17.066Z,30
2016-06-07T04:18:17.069Z,30
2016-06-07T04:19:17.071Z,30
2016-06-07T04:20:16.869Z,30
2016-06-07T04:21:17.482Z,30
2016-06-07T04:22:18.329Z,30
2016-06-07T04:23:17.050Z,30
2016-06-07T04:24:16.991Z,30
2016-06-07T04:25:16.977Z,30
2016-06-07T04:26:16.979Z,35
2016-06-07T04:27:16.811Z,35
2016-06-07T04:28:16.954Z,35
2016-06-07T04:29:16.941Z,35
2016-06-07T04:30:16.928Z,35
2016-06-07T04:31:16.932Z,35
2016-06-07T04:32:16.918Z,40
2016-06-07T04:33:16.889Z,40
2016-06-07T04:34:16.893Z,40
2016-06-07T04:35:16.878Z,40
2016-06-07T04:36:16.867Z,40
2016-06-07T04:37:17.587Z,45
2016-06-07T04:38:16.840Z,45
2016-06-07T04:39:16.670Z,45
2016-06-07T04:40:16.831Z,45
2016-06-07T04:41:16.817Z,50
2016-06-07T04:42:16.804Z,50
2016-06-07T04:43:16.791Z,50
2016-06-07T04:44:16.623Z,50
2016-06-07T04:45:16.765Z,50
2016-06-07T04:46:16.752Z,50
2016-06-07T04:47:16.755Z,55
2016-06-07T04:48:16.586Z,55
2016-06-07T04:49:16.730Z,55
2016-06-07T04:50:16.732Z,55
2016-06-07T04:51:16.703Z,55
2016-06-07T04:52:17.268Z,60
2016-06-07T04:53:16.552Z,60
2016-06-07T04:54:16.680Z,60
2016-06-07T04:55:16.355Z,60
2016-06-07T04:56:17.326Z,60
2016-06-07T04:57:16.641Z,65
2016-06-07T04:58:16.472Z,65
2016-06-07T04:59:16.616Z,65
2016-06-07T05:00:16.602Z,65
2016-06-07T05:01:16.449Z,65
2016-06-07T05:02:16.592Z,65
2016-06-07T05:03:16.595Z,65
2016-06-07T05:04:16.567Z,65
2016-06-07T05:05:16.554Z,65
2016-06-07T05:06:16.557Z,65
2016-06-07T05:07:16.559Z,70
2016-06-07T05:08:16.609Z,70
2016-06-07T05:09:16.517Z,70
2016-06-07T05:10:16.504Z,70
2016-06-07T05:11:16.336Z,70
2016-06-07T05:12:16.494Z,70
2016-06-07T05:13:16.481Z,70
2016-06-07T05:14:16.469Z,70
2016-06-07T05:15:16.315Z,70
2016-06-07T05:16:16.458Z,70
2016-06-07T05:17:16.429Z,70
2016-06-07T05:18:16.308Z,70
2016-06-07T05:19:16.419Z,70
2016-06-07T05:20:16.610Z,70
2016-06-07T05:21:16.393Z,70
2016-06-07T05:22:17.537Z,70
2016-06-07T05:23:16.383Z,75
2016-06-07T05:24:16.371Z,75
2016-06-07T05:25:16.498Z,75
2016-06-07T05:26:16.344Z,75
2016-06-07T05:27:16.347Z,80
2016-06-07T05:28:16.382Z,85
2016-06-07T05:29:16.352Z,85
2016-06-07T05:30:16.307Z,90
2016-06-07T05:31:16.295Z,95
2016-06-07T05:32:16.142Z,100
2016-06-07T05:33:16.285Z,105
2016-06-07T05:34:16.116Z,110
2016-06-07T05:35:16.291Z,110
2016-06-07T05:36:16.262Z,110
2016-06-07T05:37:16.280Z,110
2016-06-07T05:38:16.080Z,115
2016-06-07T05:39:16.223Z,115
2016-06-07T05:40:16.257Z,115
2016-06-07T05:41:16.212Z,120
2016-06-07T05:42:17.122Z,115
2016-06-07T05:43:16.203Z,115
2016-06-07T05:44:16.190Z,120
2016-06-07T05:45:16.161Z,115
2016-06-07T05:46:16.180Z,115
2016-06-07T05:47:16.010Z,115
2016-06-07T05:48:16.138Z,115
2016-06-07T05:49:16.141Z,110
2016-06-07T05:50:16.127Z,110
2016-06-07T05:51:16.114Z,110
2016-06-07T05:52:15.961Z,110
2016-06-07T05:53:16.089Z,105
2016-06-07T05:54:16.077Z,105
2016-06-07T05:55:16.079Z,100
2016-06-07T05:56:16.066Z,100
2016-06-07T05:57:16.053Z,95
2016-06-07T05:58:15.900Z,95
2016-06-07T05:59:15.902Z,95
2016-06-07T06:00:16.045Z,90
2016-06-07T06:01:16.017Z,90
2016-06-07T06:02:16.019Z,95
2016-06-07T06:03:15.991Z,95
2016-06-07T06:04:15.993Z,95
2016-06-07T06:05:15.981Z,95
2016-06-07T06:06:15.984Z,95
2016-06-07T06:07:16.674Z,95
2016-06-07T06:08:17.332Z,100
2016-06-07T06:09:15.945Z,100
2016-06-07T06:10:15.948Z,105
2016-06-07T06:11:15.934Z,110
2016-06-07T06:12:15.921Z,115
2016-06-07T06:13:15.924Z,120
2016-06-07T06:14:15.911Z,115
2016-06-07T06:15:15.898Z,120
2016-06-07T06:16:15.900Z,120
2016-06-07T06:17:15.889Z,115
2016-06-07T06:18:15.875Z,125
2016-06-07T06:19:15.878Z,195
2016-06-07T06:20:15.864Z,170
2016-06-07T06:21:15.836Z,110
2016-06-07T06:22:16.214Z,105
2016-06-07T06:23:17.342Z,105
2016-06-07T06:24:15.828Z,110
2016-06-07T06:25:15.816Z,115
2016-06-07T06:26:15.803Z,115
2016-06-07T06:27:15.633Z,120
2016-06-07T06:28:15.777Z,120
2016-06-07T06:29:15.779Z,120
2016-06-07T06:30:15.767Z,120
2016-06-07T06:31:15.613Z,125
2016-06-07T06:32:15.771Z,125
2016-06-07T06:33:15.744Z,130
2016-06-07T06:34:15.746Z,130
2016-06-07T06:35:15.732Z,135
2016-06-07T06:36:15.704Z,135
2016-06-07T06:37:15.598Z,135
2016-06-07T06:38:15.695Z,140
2016-06-07T06:39:15.681Z,135
2016-06-07T06:40:15.543Z,135
2016-06-07T06:41:15.686Z,140
2016-06-07T06:42:15.674Z,140
2016-06-07T06:43:15.662Z,140
2016-06-07T06:44:15.664Z,145
2016-06-07T06:45:15.634Z,150
2016-06-07T06:46:15.638Z,160
2016-06-07T06:47:15.312Z,355
2016-06-07T06:48:15.611Z,715
2016-06-07T06:49:15.631Z,840
2016-06-07T06:50:15.602Z,845
2016-06-07T06:51:16.058Z,825
2016-06-07T06:52:15.638Z,815
2016-06-07T06:53:15.595Z,790
2016-06-07T06:54:15.566Z,660
2016-06-07T06:55:15.568Z,330
2016-06-07T06:56:15.556Z,175
2016-06-07T06:57:15.558Z,165
2016-06-07T06:58:15.561Z,155
2016-06-07T06:59:15.532Z,155
2016-06-07T07:00:15.518Z,155
2016-06-07T07:01:15.522Z,155
2016-06-07T07:02:15.525Z,155
2016-06-07T07:03:15.512Z,155
2016-06-07T07:04:15.515Z,155
2016-06-07T07:05:15.502Z,175
2016-06-07T07:06:15.488Z,320
2016-06-07T07:07:15.335Z,360
2016-06-07T07:08:15.696Z,270
2016-06-07T07:09:15.449Z,500
2016-06-07T07:10:15.452Z,795
2016-06-07T07:11:15.439Z,940
2016-06-07T07:12:15.457Z,935
2016-06-07T07:13:15.429Z,915
2016-06-07T07:14:15.432Z,920
2016-06-07T07:15:15.419Z,935
2016-06-07T07:16:15.422Z,940
2016-06-07T07:17:15.440Z,945
2016-06-07T07:18:15.411Z,900
2016-06-07T07:19:15.398Z,670
2016-06-07T07:20:15.603Z,395
2016-06-07T07:21:15.389Z,210
2016-06-07T07:22:15.688Z,215
2016-06-07T07:23:15.580Z,435
2016-06-07T07:24:15.381Z,755
2016-06-07T07:25:15.367Z,1030
2016-06-07T07:26:15.370Z,925
2016-06-07T07:27:15.357Z,910
2016-06-07T07:28:15.360Z,1045
2016-06-07T07:29:15.207Z,1020
2016-06-07T07:30:15.366Z,965
2016-06-07T07:31:15.352Z,1055
2016-06-07T07:32:15.355Z,1085
2016-06-07T07:33:15.358Z,1115
2016-06-07T07:34:15.330Z,1075
2016-06-07T07:35:15.035Z,1035
2016-06-07T07:36:15.335Z,1015
2016-06-07T07:37:16.322Z,1060
2016-06-07T07:38:15.418Z,1105
2016-06-07T07:39:15.170Z,1110
2016-06-07T07:40:15.329Z,1125
2016-06-07T07:41:15.333Z,1180
2016-06-07T07:42:15.320Z,1190
2016-06-07T07:43:15.323Z,1200
2016-06-07T07:44:15.325Z,1225
2016-06-07T07:45:15.312Z,1190
2016-06-07T07:46:15.314Z,1185
2016-06-07T07:47:15.318Z,1240
2016-06-07T07:48:15.336Z,1265
2016-06-07T07:49:15.322Z,1245
2016-06-07T07:50:15.309Z,1295
2016-06-07T07:51:15.156Z,1295
2016-06-07T07:52:17.362Z,1245
2016-06-07T07:53:15.333Z,1210
2016-06-07T07:54:15.164Z,1215
2016-06-07T07:55:15.308Z,1225
2016-06-07T07:56:15.310Z,1220
2016-06-07T07:57:15.313Z,1250
2016-06-07T07:58:15.316Z,1290
2016-06-07T07:59:15.319Z,1305
2016-06-07T08:00:15.321Z,1310
2016-06-07T08:01:15.308Z,1320
2016-06-07T08:02:15.311Z,1320
2016-06-07T08:03:15.313Z,1330
2016-06-07T08:04:15.316Z,1315
2016-06-07T08:05:15.318Z,1290
2016-06-07T08:06:15.321Z,1345
2016-06-07T08:07:15.231Z,1345
2016-06-07T08:08:15.358Z,1365
2016-06-07T08:09:15.315Z,1355
2016-06-07T08:10:15.332Z,1375
2016-06-07T08:11:15.320Z,1385
2016-06-07T08:12:15.182Z,1405
2016-06-07T08:13:15.325Z,1435
2016-06-07T08:14:15.328Z,1455
2016-06-07T08:15:15.330Z,1465
2016-06-07T08:16:15.333Z,1495
2016-06-07T08:17:15.351Z,1495
2016-06-07T08:18:15.214Z,1520
2016-06-07T08:19:15.342Z,1385
2016-06-07T08:20:15.187Z,1170
2016-06-07T08:21:15.346Z,1035
2016-06-07T08:22:15.380Z,975
2016-06-07T08:23:15.243Z,795
2016-06-07T08:24:15.355Z,795
2016-06-07T08:25:15.357Z,840
2016-06-07T08:26:15.188Z,910
2016-06-07T08:27:15.347Z,940
2016-06-07T08:28:15.365Z,1095
2016-06-07T08:29:15.353Z,1105
2016-06-07T08:30:15.371Z,680
2016-06-07T08:31:15.358Z,930
2016-06-07T08:32:15.376Z,565
2016-06-07T08:33:15.363Z,700
2016-06-07T08:34:15.381Z,695
2016-06-07T08:35:15.368Z,845
2016-06-07T08:36:15.372Z,710
2016-06-07T08:37:15.733Z,990
2016-06-07T08:38:15.735Z,880
2016-06-07T08:39:15.363Z,1010
2016-06-07T08:40:15.381Z,880
2016-06-07T08:41:15.369Z,1110
2016-06-07T08:42:15.371Z,1315
2016-06-07T08:43:15.374Z,1540
2016-06-07T08:44:15.376Z,1610
2016-06-07T08:45:15.379Z,1670
2016-06-07T08:46:15.492Z,1685
2016-06-07T08:47:15.542Z,1690
2016-06-07T08:48:15.372Z,1685
2016-06-07T08:49:15.375Z,1645
2016-06-07T08:50:15.377Z,1565
2016-06-07T08:51:15.381Z,1490
2016-06-07T08:52:15.383Z,1500
2016-06-07T08:53:15.276Z,1515
2016-06-07T08:54:15.388Z,1100
2016-06-07T08:55:15.391Z,515
2016-06-07T08:56:15.237Z,380
2016-06-07T08:57:15.397Z,410
2016-06-07T08:58:15.399Z,685
2016-06-07T08:59:15.402Z,785
2016-06-07T09:00:15.405Z,845
2016-06-07T09:01:15.407Z,905
2016-06-07T09:02:15.269Z,680
2016-06-07T09:03:15.413Z,435
2016-06-07T09:04:15.415Z,380
2016-06-07T09:05:15.402Z,360
2016-06-07T09:06:15.264Z,385
2016-06-07T09:07:15.845Z,350
2016-06-07T09:08:16.644Z,350
2016-06-07T09:09:15.413Z,635
2016-06-07T09:10:15.415Z,1260
2016-06-07T09:11:15.263Z,1490
2016-06-07T09:12:15.421Z,1565
2016-06-07T09:13:15.424Z,1685
2016-06-07T09:14:15.426Z,1695
2016-06-07T09:15:15.445Z,1695
2016-06-07T09:16:15.432Z,1650
2016-06-07T09:17:15.278Z,1555
2016-06-07T09:18:15.421Z,1635
2016-06-07T09:19:15.299Z,1620
2016-06-07T09:20:15.630Z,1690
2016-06-07T09:21:15.430Z,1700
2016-06-07T09:22:15.432Z,1685
2016-06-07T09:23:15.497Z,1675
2016-06-07T09:24:15.437Z,1645
2016-06-07T09:25:15.472Z,1605
2016-06-07T09:26:15.459Z,1740
2016-06-07T09:27:15.446Z,1795
2016-06-07T09:28:15.464Z,1805
2016-06-07T09:29:15.450Z,1755
2016-06-07T09:30:15.469Z,1550
2016-06-07T09:31:15.489Z,1825
2016-06-07T09:32:15.475Z,1840
2016-06-07T09:33:15.319Z,1830
2016-06-07T09:34:15.481Z,1795
2016-06-07T09:35:15.499Z,1740
2016-06-07T09:36:15.483Z,1660
2016-06-07T09:37:15.485Z,1705
2016-06-07T09:38:15.347Z,1780
2016-06-07T09:39:15.491Z,1030
2016-06-07T09:40:15.493Z,1985
2016-06-07T09:41:15.496Z,1970
2016-06-07T09:42:15.515Z,1945
2016-06-07T09:43:15.502Z,1780
2016-06-07T09:44:15.520Z,1680
2016-06-07T09:45:15.507Z,1925
2016-06-07T09:46:15.540Z,1985
2016-06-07T09:47:15.372Z,2015
2016-06-07T09:48:15.531Z,2015
2016-06-07T09:49:15.534Z,1980
2016-06-07T09:50:15.552Z,1945
2016-06-07T09:51:15.539Z,1910
2016-06-07T09:52:15.542Z,1900
2016-06-07T09:53:15.685Z,1900
2016-06-07T09:54:15.562Z,1870
2016-06-07T09:55:15.565Z,1835
2016-06-07T09:56:15.428Z,1830
2016-06-07T09:57:15.570Z,1840
2016-06-07T09:58:15.573Z,1880
2016-06-07T09:59:15.576Z,1870
2016-06-07T10:00:15.578Z,1880
2016-06-07T10:01:15.597Z,1945
2016-06-07T10:02:15.600Z,1910
2016-06-07T10:03:15.586Z,1990
2016-06-07T10:04:15.605Z,2100
2016-06-07T10:05:15.608Z,2170
2016-06-07T10:06:15.611Z,2205
2016-06-07T10:07:15.457Z,2185
2016-06-07T10:08:16.116Z,2220
2016-06-07T10:09:15.478Z,2100
2016-06-07T10:10:15.638Z,830
2016-06-07T10:11:15.655Z,460
2016-06-07T10:12:15.642Z,525
2016-06-07T10:13:15.660Z,605
2016-06-07T10:14:15.663Z,845
2016-06-07T10:15:15.651Z,1065
2016-06-07T10:16:15.513Z,1215
2016-06-07T10:17:15.687Z,1220
2016-06-07T10:18:15.659Z,1325
2016-06-07T10:19:15.677Z,1475
2016-06-07T10:20:15.681Z,1705
2016-06-07T10:21:15.683Z,1870
2016-06-07T10:22:15.685Z,1955
2016-06-07T10:23:15.720Z,1965
2016-06-07T10:24:15.722Z,1985
2016-06-07T10:25:15.709Z,2005
2016-06-07T10:26:15.713Z,2035
2016-06-07T10:27:15.402Z,2045
2016-06-07T10:28:15.718Z,2035
2016-06-07T10:29:15.735Z,2050
2016-06-07T10:30:16.817Z,2060
2016-06-07T10:31:15.725Z,2070
2016-06-07T10:32:15.729Z,2080
2016-06-07T10:33:15.590Z,1545
2016-06-07T10:34:15.593Z,1605
2016-06-07T10:35:15.752Z,1805
2016-06-07T10:36:15.770Z,1905
2016-06-07T10:37:15.757Z,2010
2016-06-07T10:38:17.119Z,2085
2016-06-07T10:39:15.654Z,2080
2016-06-07T10:40:15.625Z,2075
2016-06-07T10:41:15.784Z,2040
2016-06-07T10:42:15.803Z,2060
2016-06-07T10:43:15.789Z,2095
2016-06-07T10:44:15.792Z,2125
2016-06-07T10:45:15.795Z,2135
2016-06-07T10:46:15.797Z,2110
2016-06-07T10:47:15.816Z,2080
2016-06-07T10:48:15.818Z,2090
2016-06-07T10:49:15.665Z,2090
2016-06-07T10:50:15.824Z,2115
2016-06-07T10:51:15.686Z,2105
2016-06-07T10:52:15.844Z,2060
2016-06-07T10:53:16.004Z,2050
2016-06-07T10:54:16.240Z,2045
2016-06-07T10:55:15.865Z,2030
2016-06-07T10:56:15.883Z,2050
2016-06-07T10:57:15.900Z,2060
2016-06-07T10:58:15.934Z,2080
2016-06-07T10:59:15.936Z,2130
2016-06-07T11:00:15.978Z,2080
2016-06-07T11:01:15.985Z,2060
2016-06-07T11:02:15.993Z,2020
2016-06-07T11:03:16.017Z,2050
2016-06-07T11:04:16.025Z,2075
2016-06-07T11:05:16.015Z,2055
2016-06-07T11:06:16.019Z,2025
2016-06-07T11:07:16.024Z,2020
2016-06-07T11:08:15.591Z,2070
2016-06-07T11:09:15.768Z,2055
2016-06-07T11:10:16.052Z,2115
2016-06-07T11:11:15.899Z,2115
2016-06-07T11:12:16.075Z,2110
2016-06-07T11:13:16.079Z,2140
2016-06-07T11:14:16.081Z,2195
2016-06-07T11:15:16.069Z,2190
2016-06-07T11:16:16.088Z,2200
2016-06-07T11:17:16.091Z,2200
2016-06-07T11:18:16.125Z,2225
2016-06-07T11:19:16.112Z,2280
2016-06-07T11:20:16.319Z,2270
2016-06-07T11:21:16.118Z,2215
2016-06-07T11:22:16.136Z,2095
2016-06-07T11:23:16.342Z,2060
2016-06-07T11:24:16.079Z,2060
2016-06-07T11:25:16.144Z,2055
2016-06-07T11:26:16.147Z,2100
2016-06-07T11:27:16.149Z,2100
2016-06-07T11:28:16.169Z,2080
2016-06-07T11:29:16.186Z,2075
2016-06-07T11:30:16.174Z,2075
2016-06-07T11:31:16.176Z,2075
2016-06-07T11:32:16.039Z,2100
2016-06-07T11:33:16.197Z,2110
2016-06-07T11:34:16.200Z,2145
2016-06-07T11:35:16.265Z,2145
2016-06-07T11:36:16.221Z,2165
2016-06-07T11:37:16.223Z,2195
2016-06-07T11:38:17.070Z,2195
2016-06-07T11:39:16.901Z,2190
2016-06-07T11:40:16.247Z,2190
2016-06-07T11:41:16.250Z,2170
2016-06-07T11:42:16.284Z,2110
2016-06-07T11:43:16.427Z,2075
2016-06-07T11:44:16.290Z,2040
2016-06-07T11:45:16.307Z,2035
2016-06-07T11:46:16.295Z,2095
2016-06-07T11:47:16.203Z,2140
2016-06-07T11:48:16.300Z,2155
2016-06-07T11:49:16.318Z,2120
2016-06-07T11:50:16.368Z,2120
2016-06-07T11:51:16.434Z,2160
2016-06-07T11:52:16.373Z,2165
2016-06-07T11:53:16.408Z,2190
2016-06-07T11:54:16.863Z,2170
2016-06-07T11:55:16.397Z,2170
2016-06-07T11:56:16.383Z,2125
2016-06-07T11:57:16.262Z,2095
2016-06-07T11:58:16.405Z,2005
2016-06-07T11:59:16.408Z,1945
2016-06-07T12:00:16.427Z,1970
2016-06-07T12:01:16.272Z,2030
2016-06-07T12:02:16.463Z,1985
2016-06-07T12:03:16.402Z,2035
2016-06-07T12:04:16.343Z,1600
2016-06-07T12:05:16.408Z,1615
2016-06-07T12:06:16.411Z,1795
2016-06-07T12:07:16.477Z,1975
2016-06-07T12:08:16.479Z,2045
2016-06-07T12:09:16.513Z,2060
2016-06-07T12:10:16.437Z,2050
2016-06-07T12:11:16.456Z,1990
2016-06-07T12:12:16.364Z,2050
2016-06-07T12:13:16.461Z,2035
2016-06-07T12:14:16.464Z,2030
2016-06-07T12:15:16.482Z,2075
2016-06-07T12:16:16.485Z,2080
2016-06-07T12:17:16.487Z,2085
2016-06-07T12:18:16.521Z,2070
2016-06-07T12:19:16.509Z,2100
2016-06-07T12:20:16.495Z,2085
2016-06-07T12:21:16.498Z,2080
2016-06-07T12:22:16.517Z,1640
2016-06-07T12:23:16.848Z,1960
2016-06-07T12:24:16.381Z,2035
2016-06-07T12:25:16.525Z,2075
2016-06-07T12:26:16.543Z,2085
2016-06-07T12:27:16.530Z,2075
2016-06-07T12:28:16.548Z,1530
2016-06-07T12:29:16.566Z,1610
2016-06-07T12:30:16.553Z,2125
2016-06-07T12:31:16.572Z,2135
2016-06-07T12:32:16.575Z,1025
2016-06-07T12:33:16.577Z,585
2016-06-07T12:34:16.596Z,505
2016-06-07T12:35:16.582Z,485
2016-06-07T12:36:16.585Z,490
2016-06-07T12:37:16.447Z,485
2016-06-07T12:38:16.746Z,480
2016-06-07T12:39:16.952Z,505
2016-06-07T12:40:16.627Z,470
2016-06-07T12:41:16.630Z,360
2016-06-07T12:42:16.649Z,300
2016-06-07T12:43:16.463Z,275
2016-06-07T12:44:16.638Z,335
2016-06-07T12:45:16.625Z,460
2016-06-07T12:46:16.628Z,565
2016-06-07T12:47:16.646Z,605
2016-06-07T12:48:16.337Z,490
2016-06-07T12:49:16.652Z,460
2016-06-07T12:50:16.686Z,430
2016-06-07T12:51:16.657Z,400
2016-06-07T12:52:16.676Z,350
2016-06-07T12:53:18.365Z,280
2016-06-07T12:54:16.634Z,220
2016-06-07T12:55:16.667Z,180
2016-06-07T12:56:16.670Z,165
2016-06-07T12:57:16.673Z,145
2016-06-07T12:58:16.676Z,135
2016-06-07T12:59:16.522Z,115
2016-06-07T13:00:16.681Z,100
2016-06-07T13:01:16.668Z,85
2016-06-07T13:02:16.686Z,80
2016-06-07T13:03:16.689Z,75
2016-06-07T13:04:16.692Z,70
2016-06-07T13:05:16.523Z,65
2016-06-07T13:06:16.697Z,55
2016-06-07T13:07:16.684Z,50
2016-06-07T13:08:16.703Z,45
2016-06-07T13:09:16.705Z,45
2016-06-07T13:10:16.693Z,40
2016-06-07T13:11:16.804Z,40
2016-06-07T13:12:16.729Z,40
2016-06-07T13:13:16.701Z,35
2016-06-07T13:14:16.546Z,35
2016-06-07T13:15:16.690Z,35
2016-06-07T13:16:16.693Z,35
2016-06-07T13:17:16.695Z,35
2016-06-07T13:18:16.745Z,35
2016-06-07T13:19:16.685Z,35
2016-06-07T13:20:16.751Z,35
2016-06-07T13:21:16.675Z,30
2016-06-07T13:22:16.678Z,30
2016-06-07T13:23:16.681Z,30
2016-06-07T13:24:16.933Z,30
2016-06-07T13:25:16.717Z,30
2016-06-07T13:26:16.672Z,25
2016-06-07T13:27:16.676Z,25
2016-06-07T13:28:16.507Z,25
2016-06-07T13:29:16.666Z,25
2016-06-07T13:30:16.653Z,25
2016-06-07T13:31:16.639Z,25
2016-06-07T13:32:16.658Z,25
2016-06-07T13:33:16.660Z,25
2016-06-07T13:34:16.632Z,25
2016-06-07T13:35:16.650Z,25
2016-06-07T13:36:16.638Z,20
2016-06-07T13:37:16.641Z,20
2016-06-07T13:38:16.643Z,20
2016-06-07T13:39:16.911Z,20
2016-06-07T13:40:16.617Z,20
2016-06-07T13:41:16.463Z,20
2016-06-07T13:42:16.637Z,20
2016-06-07T13:43:16.469Z,20
2016-06-07T13:44:16.612Z,20
2016-06-07T13:45:16.599Z,20
2016-06-07T13:46:16.601Z,20
2016-06-07T13:47:16.589Z,20
2016-06-07T13:48:16.576Z,15
2016-06-07T13:49:16.423Z,15
2016-06-07T13:50:16.582Z,15
2016-06-07T13:51:16.568Z,20
2016-06-07T13:52:16.430Z,20
2016-06-07T13:53:16.559Z,20
2016-06-07T13:54:16.389Z,20
2016-06-07T13:55:16.548Z,20
2016-06-07T13:56:16.551Z,20
2016-06-07T13:57:16.537Z,20